Time;durP1;ratioP1;P1;durP2;ratioP2;P2;SDS_P1;SDS_P2;PMS_P1;PMS_P2;Temp;Humidity;BMP_temperature;BMP_pressure;BME280_temperature;BME280_humidity;BME280_pressure;Samples;Min_cycle;Max_cycle;Signal;HPM_P1;HPM_P2
2021/01/20 00:02:21;;;;;;;9.82;8.80;;;;;;;;;;4972962;28;20406;-82
2021/01/20 00:04:47;;;;;;;11.20;9.48;;;;;;;;;;4973147;28;20394;-82
2021/01/20 00:07:13;;;;;;;9.45;8.43;;;;;;;;;;4973161;28;20378;-83
2021/01/20 00:09:40;;;;;;;10.55;9.45;;;;;;;;;;4972675;28;20402;-82
2021/01/20 00:12:06;;;;;;;11.40;9.27;;;;;;;;;;4972870;28;20379;-82
2021/01/20 00:14:32;;;;;;;9.23;8.23;;;;;;;;;;4972760;28;20382;-82
2021/01/20 00:16:58;;;;;;;10.02;8.90;;;;;;;;;;4973987;28;20369;-82
2021/01/20 00:19:24;;;;;;;10.27;9.18;;;;;;;;;;4972562;28;20465;-82
2021/01/20 00:21:51;;;;;;;10.57;9.38;;;;;;;;;;4974515;28;20406;-82
2021/01/20 00:24:17;;;;;;;10.60;8.93;;;;;;;;;;4974163;28;20369;-82
2021/01/20 00:26:43;;;;;;;9.38;8.40;;;;;;;;;;4972906;28;20378;-82
2021/01/20 00:29:09;;;;;;;9.65;8.65;;;;;;;;;;4972502;28;20371;-81
2021/01/20 00:31:35;;;;;;;10.52;9.43;;;;;;;;;;4972636;28;20375;-82
2021/01/20 00:34:04;;;;;;;10.87;9.47;;;;;;;;;;4972304;28;20379;-82
2021/01/20 00:36:30;;;;;;;10.23;8.90;;;;;;;;;;4972464;28;20405;-82
2021/01/20 00:38:56;;;;;;;10.55;9.45;;;;;;;;;;4972566;28;20469;-82
2021/01/20 00:41:22;;;;;;;11.48;10.20;;;;;;;;;;4973927;28;20406;-82
2021/01/20 00:43:48;;;;;;;10.68;9.57;;;;;;;;;;4972326;28;20375;-82
2021/01/20 00:46:14;;;;;;;11.48;9.75;;;;;;;;;;4972472;28;20393;-82
2021/01/20 00:48:40;;;;;;;10.40;9.30;;;;;;;;;;4972607;28;20370;-82
2021/01/20 00:51:06;;;;;;;10.43;9.27;;;;;;;;;;4972083;28;20732;-82
2021/01/20 00:53:32;;;;;;;10.48;9.30;;;;;;;;;;4972099;28;20371;-82
2021/01/20 00:55:58;;;;;;;10.95;9.85;;;;;;;;;;4973349;28;20983;-82
2021/01/20 00:58:24;;;;;;;10.65;9.55;;;;;;;;;;4972252;28;20436;-82
2021/01/20 01:00:50;;;;;;;11.35;10.25;;;;;;;;;;4973078;28;20366;-82
2021/01/20 01:03:16;;;;;;;11.20;10.00;;;;;;;;;;4972188;28;20406;-83
2021/01/20 01:05:43;;;;;;;11.10;9.60;;;;;;;;;;4973246;28;20382;-82
2021/01/20 01:08:09;;;;;;;11.93;10.07;;;;;;;;;;4971935;28;20548;-82
2021/01/20 01:10:35;;;;;;;10.93;9.80;;;;;;;;;;4971947;28;20445;-82
2021/01/20 01:13:03;;;;;;;11.05;9.95;;;;;;;;;;4972057;28;20390;-81
2021/01/20 01:15:35;;;;;;;11.40;10.15;;;;;;;;;;4971683;28;20936;-82
2021/01/20 01:18:04;;;;;;;10.90;9.80;;;;;;;;;;4972092;28;20718;-82
2021/01/20 01:20:30;;;;;;;11.18;10.02;;;;;;;;;;4971849;28;20462;-82
2021/01/20 01:22:57;;;;;;;12.52;11.23;;;;;;;;;;4973184;28;20489;-82
2021/01/20 01:25:23;;;;;;;13.63;12.23;;;;;;;;;;4973001;28;20798;-82
2021/01/20 01:27:49;;;;;;;12.95;11.55;;;;;;;;;;4971996;28;20461;-84
2021/01/20 01:30:15;;;;;;;12.55;11.20;;;;;;;;;;4972011;28;20377;-83
2021/01/20 01:32:41;;;;;;;12.93;11.63;;;;;;;;;;4971956;28;20482;-82
2021/01/20 01:35:07;;;;;;;12.95;11.65;;;;;;;;;;4972170;28;20410;-83
2021/01/20 01:37:36;;;;;;;13.57;11.73;;;;;;;;;;4973172;28;20421;-82
2021/01/20 01:40:02;;;;;;;12.70;11.35;;;;;;;;;;4971928;28;20442;-83
2021/01/20 01:42:28;;;;;;;13.68;11.95;;;;;;;;;;4972673;28;20430;-82
2021/01/20 01:44:55;;;;;;;12.55;11.25;;;;;;;;;;4973394;28;20406;-82
2021/01/20 01:47:21;;;;;;;13.20;11.80;;;;;;;;;;4971713;28;20382;-83
2021/01/20 01:49:47;;;;;;;13.25;11.85;;;;;;;;;;4971793;28;20392;-82
2021/01/20 01:52:13;;;;;;;14.40;12.82;;;;;;;;;;4971741;28;20385;-82
2021/01/20 01:54:44;;;;;;;13.90;12.45;;;;;;;;;;4971641;28;20478;-82
2021/01/20 01:57:10;;;;;;;14.07;12.68;;;;;;;;;;4972828;28;20362;-83
2021/01/20 01:59:36;;;;;;;14.80;13.30;;;;;;;;;;4971428;28;20383;-82
2021/01/20 02:02:02;;;;;;;15.52;13.23;;;;;;;;;;4971509;28;20409;-82
2021/01/20 02:04:34;;;;;;;14.43;12.93;;;;;;;;;;4972453;28;20391;-82
2021/01/20 02:07:09;;;;;;;14.25;12.85;;;;;;;;;;4973195;28;20420;-82
2021/01/20 02:09:35;;;;;;;13.73;12.23;;;;;;;;;;4971608;28;20462;-82
2021/01/20 02:12:07;;;;;;;13.68;12.38;;;;;;;;;;4971612;28;20437;-82
2021/01/20 02:14:40;;;;;;;13.88;12.48;;;;;;;;;;4971503;28;20375;-82
2021/01/20 02:17:09;;;;;;;14.32;12.93;;;;;;;;;;4971506;28;20386;-82
2021/01/20 02:19:50;;;;;;;14.65;13.05;;;;;;;;;;4972562;28;20370;-82
2021/01/20 02:22:46;;;;;;;15.55;13.98;;;;;;;;;;4971230;28;20773;-82
2021/01/20 02:25:12;;;;;;;15.43;13.82;;;;;;;;;;4971150;28;20390;-83
2021/01/20 02:27:45;;;;;;;15.65;14.07;;;;;;;;;;4971072;28;20385;-82
2021/01/20 02:30:11;;;;;;;15.50;14.00;;;;;;;;;;4970946;28;20743;-83
2021/01/20 02:32:38;;;;;;;15.02;13.63;;;;;;;;;;4971300;28;20489;-82
2021/01/20 02:35:05;;;;;;;15.35;13.85;;;;;;;;;;4972163;28;20389;-82
2021/01/20 02:37:33;;;;;;;14.60;13.20;;;;;;;;;;4974611;28;20374;-83
2021/01/20 02:39:59;;;;;;;15.37;13.87;;;;;;;;;;4980155;28;20398;-83
2021/01/20 02:42:25;;;;;;;14.60;13.20;;;;;;;;;;4993593;28;20461;-83
2021/01/20 02:44:51;;;;;;;14.30;12.88;;;;;;;;;;4978035;28;20386;-82
2021/01/20 02:47:20;;;;;;;14.50;13.13;;;;;;;;;;4971251;28;21105;-82
2021/01/20 02:49:46;;;;;;;14.20;12.85;;;;;;;;;;4970825;28;20474;-82
2021/01/20 02:52:19;;;;;;;14.63;13.23;;;;;;;;;;4971354;28;20761;-82
2021/01/20 02:54:48;;;;;;;14.48;13.07;;;;;;;;;;4972741;28;20458;-83
2021/01/20 02:57:20;;;;;;;14.75;13.35;;;;;;;;;;4971186;28;20377;-82
2021/01/20 02:59:46;;;;;;;15.45;14.00;;;;;;;;;;4974132;28;20371;-82
2021/01/20 03:02:13;;;;;;;16.17;14.68;;;;;;;;;;4974457;28;20406;-82
2021/01/20 03:04:42;;;;;;;17.02;15.43;;;;;;;;;;4975972;28;20379;-82
2021/01/20 03:07:08;;;;;;;16.67;15.00;;;;;;;;;;4975758;28;20363;-82
2021/01/20 03:09:34;;;;;;;17.90;16.13;;;;;;;;;;4974440;28;20416;-82
2021/01/20 03:12:06;;;;;;;18.13;16.33;;;;;;;;;;4974545;28;20411;-83
2021/01/20 03:14:35;;;;;;;17.05;15.35;;;;;;;;;;4974464;28;20437;-82
2021/01/20 03:17:01;;;;;;;17.23;15.63;;;;;;;;;;4975186;28;20465;-82
2021/01/20 03:19:27;;;;;;;16.90;15.30;;;;;;;;;;4975611;28;20406;-83
2021/01/20 03:21:53;;;;;;;17.00;15.30;;;;;;;;;;4974331;28;20414;-82
2021/01/20 03:24:19;;;;;;;16.73;15.13;;;;;;;;;;4974730;28;20382;-82
2021/01/20 03:26:45;;;;;;;17.13;15.52;;;;;;;;;;4973906;28;20508;-82
2021/01/20 03:29:11;;;;;;;17.60;15.90;;;;;;;;;;4973708;28;20378;-82
2021/01/20 03:31:37;;;;;;;17.73;16.05;;;;;;;;;;4974070;28;20386;-83
2021/01/20 03:34:03;;;;;;;17.70;16.02;;;;;;;;;;4974976;28;20398;-82
2021/01/20 03:36:29;;;;;;;18.33;16.53;;;;;;;;;;4973644;28;20435;-83
2021/01/20 03:38:55;;;;;;;17.17;15.57;;;;;;;;;;4975542;28;20370;-82
2021/01/20 03:41:21;;;;;;;18.70;16.90;;;;;;;;;;4973260;28;20876;-82
2021/01/20 03:43:47;;;;;;;19.40;17.40;;;;;;;;;;4973997;28;20375;-82
2021/01/20 03:46:13;;;;;;;19.38;17.48;;;;;;;;;;4974787;28;20363;-81
2021/01/20 03:48:39;;;;;;;19.23;17.43;;;;;;;;;;4973917;28;20370;-82
2021/01/20 03:51:05;;;;;;;19.42;17.63;;;;;;;;;;4973220;28;20865;-82
2021/01/20 03:53:31;;;;;;;19.00;17.20;;;;;;;;;;4974851;28;20371;-82
2021/01/20 03:55:57;;;;;;;19.20;17.27;;;;;;;;;;4973269;28;20371;-82
2021/01/20 03:58:23;;;;;;;19.98;18.05;;;;;;;;;;4973465;28;20390;-83
2021/01/20 04:00:50;;;;;;;20.15;18.02;;;;;;;;;;4973538;28;20385;-83
2021/01/20 04:03:16;;;;;;;19.83;17.83;;;;;;;;;;4973096;28;20905;-83
2021/01/20 04:05:42;;;;;;;18.63;16.83;;;;;;;;;;4973033;28;20440;-82
2021/01/20 04:08:08;;;;;;;20.42;18.40;;;;;;;;;;4973486;28;20383;-83
2021/01/20 04:10:34;;;;;;;19.77;17.85;;;;;;;;;;4972139;28;20441;-83
2021/01/20 04:13:00;;;;;;;20.25;18.15;;;;;;;;;;4973550;28;20375;-82
2021/01/20 04:15:26;;;;;;;19.90;17.80;;;;;;;;;;4973294;28;20385;-83
2021/01/20 04:17:52;;;;;;;19.83;17.80;;;;;;;;;;4973534;28;20880;-83
2021/01/20 04:20:18;;;;;;;19.65;17.67;;;;;;;;;;4974089;28;20374;-82
2021/01/20 04:22:44;;;;;;;19.23;17.33;;;;;;;;;;4972568;28;20407;-83
2021/01/20 04:25:11;;;;;;;20.13;18.13;;;;;;;;;;4972967;28;20379;-82
2021/01/20 04:27:37;;;;;;;19.52;17.55;;;;;;;;;;4973027;28;20861;-82
2021/01/20 04:30:04;;;;;;;19.88;17.88;;;;;;;;;;4972837;28;20861;-83
2021/01/20 04:32:30;;;;;;;18.73;16.92;;;;;;;;;;4972904;28;20375;-83
2021/01/20 04:34:56;;;;;;;18.48;16.60;;;;;;;;;;4973925;28;20725;-83
2021/01/20 04:37:22;;;;;;;19.43;17.47;;;;;;;;;;4972850;28;20425;-81
2021/01/20 04:39:48;;;;;;;19.70;17.15;;;;;;;;;;4972474;28;20465;-81
2021/01/20 04:42:14;;;;;;;18.23;16.42;;;;;;;;;;4972558;28;20407;-82
2021/01/20 04:44:40;;;;;;;18.25;16.45;;;;;;;;;;4972553;28;20853;-82
2021/01/20 04:47:07;;;;;;;19.25;16.50;;;;;;;;;;4972637;28;20371;-82
2021/01/20 04:49:36;;;;;;;17.95;16.15;;;;;;;;;;4972112;28;20406;-82
2021/01/20 04:52:03;;;;;;;17.02;15.23;;;;;;;;;;4972030;28;20383;-82
2021/01/20 04:54:30;;;;;;;19.60;15.77;;;;;;;;;;4972523;28;20371;-83
2021/01/20 04:56:57;;;;;;;18.40;15.75;;;;;;;;;;4972486;28;20383;-83
2021/01/20 04:59:27;;;;;;;18.58;15.80;;;;;;;;;;4973687;28;20412;-82
2021/01/20 05:01:53;;;;;;;16.40;14.70;;;;;;;;;;4972347;28;20750;-83
2021/01/20 05:04:20;;;;;;;16.30;14.60;;;;;;;;;;4972314;28;20374;-83
2021/01/20 05:06:46;;;;;;;17.83;14.85;;;;;;;;;;4972351;28;20390;-83
2021/01/20 05:09:12;;;;;;;14.95;13.35;;;;;;;;;;4972278;28;20374;-83
2021/01/20 05:11:40;;;;;;;15.95;13.32;;;;;;;;;;4973277;28;20374;-83
2021/01/20 05:14:16;;;;;;;15.30;13.68;;;;;;;;;;4972353;28;20922;-83
2021/01/20 05:16:49;;;;;;;13.88;12.18;;;;;;;;;;4972373;28;20469;-84
2021/01/20 05:19:16;;;;;;;13.75;12.30;;;;;;;;;;4971713;28;20378;-82
2021/01/20 05:21:42;;;;;;;13.80;11.63;;;;;;;;;;4971721;28;20441;-82
2021/01/20 05:24:24;;;;;;;12.10;10.80;;;;;;;;;;4972109;28;20789;-83
2021/01/20 05:26:50;;;;;;;12.20;10.35;;;;;;;;;;4972337;28;20423;-83
2021/01/20 05:29:17;;;;;;;10.98;9.88;;;;;;;;;;4971739;28;20371;-83
2021/01/20 05:31:43;;;;;;;13.80;10.40;;;;;;;;;;4973372;28;20465;-84
2021/01/20 05:34:22;;;;;;;12.55;10.13;;;;;;;;;;4972071;28;20366;-83
2021/01/20 05:37:02;;;;;;;14.45;10.38;;;;;;;;;;4971792;28;20379;-84
2021/01/20 05:39:28;;;;;;;12.00;10.07;;;;;;;;;;4983254;28;20442;-85
2021/01/20 05:42:04;;;;;;;13.23;9.80;;;;;;;;;;4991814;28;20826;-83
2021/01/20 05:44:36;;;;;;;12.23;9.05;;;;;;;;;;4990985;28;20392;-82
2021/01/20 05:47:12;;;;;;;10.10;8.60;;;;;;;;;;4990933;28;20405;-83
2021/01/20 05:49:38;;;;;;;10.48;8.48;;;;;;;;;;4989923;28;20733;-83
2021/01/20 05:52:14;;;;;;;11.00;7.90;;;;;;;;;;4992158;28;20381;-83
2021/01/20 05:54:41;;;;;;;13.73;7.90;;;;;;;;;;4988415;28;20409;-83
2021/01/20 05:57:10;;;;;;;10.93;7.65;;;;;;;;;;4992157;28;20447;-84
2021/01/20 05:59:36;;;;;;;11.43;7.13;;;;;;;;;;4991381;28;20495;-84
2021/01/20 06:02:04;;;;;;;11.93;6.90;;;;;;;;;;4995560;28;20966;-84
2021/01/20 06:04:31;;;;;;;9.02;6.40;;;;;;;;;;4990296;28;20396;-85
2021/01/20 06:06:57;;;;;;;9.65;6.63;;;;;;;;;;4990284;28;20472;-85
2021/01/20 06:09:25;;;;;;;9.85;6.50;;;;;;;;;;4993588;28;20385;-84
2021/01/20 06:11:52;;;;;;;7.40;6.15;;;;;;;;;;4994137;28;20447;-85
2021/01/20 06:14:40;;;;;;;8.10;6.10;;;;;;;;;;4979589;28;20926;-85
2021/01/20 06:17:09;;;;;;;8.82;6.20;;;;;;;;;;4998711;28;20488;-84
2021/01/20 06:19:35;;;;;;;8.38;5.97;;;;;;;;;;5004726;28;20432;-84
2021/01/20 06:24:33;;;;;;;9.23;5.80;;;;;;;;;;5056883;28;20800;-83
2021/01/20 06:27:06;;;;;;;7.80;5.63;;;;;;;;;;5032970;28;20456;-83
2021/01/20 06:29:45;;;;;;;5.72;4.93;;;;;;;;;;5031156;28;20384;-82
2021/01/20 06:32:15;;;;;;;8.57;5.45;;;;;;;;;;5030853;28;20718;-84
2021/01/20 06:34:48;;;;;;;7.63;5.13;;;;;;;;;;5034605;28;20375;-82
2021/01/20 06:37:34;;;;;;;7.63;5.35;;;;;;;;;;5053689;28;20368;-82
2021/01/20 06:40:00;;;;;;;7.03;5.10;;;;;;;;;;5054407;28;20445;-82
2021/01/20 06:42:33;;;;;;;6.97;4.63;;;;;;;;;;5052947;28;20880;-83
2021/01/20 06:45:14;;;;;;;7.00;5.13;;;;;;;;;;5035611;28;20438;-83
2021/01/20 06:47:59;;;;;;;7.80;4.73;;;;;;;;;;5053352;28;20445;-83
2021/01/20 06:50:31;;;;;;;7.70;5.07;;;;;;;;;;5035443;28;20516;-83
2021/01/20 06:53:04;;;;;;;7.32;4.90;;;;;;;;;;5053105;28;20848;-83
2021/01/20 06:55:40;;;;;;;7.72;4.90;;;;;;;;;;5054308;28;20834;-82
2021/01/20 06:58:26;;;;;;;6.57;4.50;;;;;;;;;;5054475;28;20356;-82
2021/01/20 07:01:00;;;;;;;7.03;4.88;;;;;;;;;;5054119;28;20822;-83
2021/01/20 07:03:45;;;;;;;5.97;4.95;;;;;;;;;;5054193;28;20392;-82
2021/01/20 07:06:30;;;;;;;7.20;4.53;;;;;;;;;;5036310;28;20371;-83
2021/01/20 07:08:56;;;;;;;7.03;4.50;;;;;;;;;;5035348;28;20417;-80
2021/01/20 07:11:22;;;;;;;6.15;4.65;;;;;;;;;;5036090;28;20368;-81
2021/01/20 07:13:48;;;;;;;7.63;4.57;;;;;;;;;;5035819;28;20364;-81
2021/01/20 07:16:17;;;;;;;6.07;4.40;;;;;;;;;;5035889;28;20862;-81
2021/01/20 07:18:44;;;;;;;7.28;4.40;;;;;;;;;;5056700;28;20360;-80
2021/01/20 07:21:10;;;;;;;6.50;4.80;;;;;;;;;;5035381;28;20415;-81
2021/01/20 07:23:36;;;;;;;7.68;4.53;;;;;;;;;;5018618;28;20433;-82
2021/01/20 07:26:03;;;;;;;6.88;4.43;;;;;;;;;;5032060;28;20417;-83
2021/01/20 07:28:29;;;;;;;7.38;4.82;;;;;;;;;;5032253;28;20374;-80
2021/01/20 07:31:10;;;;;;;6.60;4.68;;;;;;;;;;5031445;28;20385;-82
2021/01/20 07:33:37;;;;;;;6.80;4.90;;;;;;;;;;5010335;28;20383;-83
2021/01/20 07:36:10;;;;;;;5.60;4.32;;;;;;;;;;5012584;28;20442;-83
2021/01/20 07:38:36;;;;;;;8.35;5.05;;;;;;;;;;5025049;28;20461;-85
2021/01/20 07:41:12;;;;;;;8.38;5.03;;;;;;;;;;5031614;28;20393;-84
2021/01/20 07:43:38;;;;;;;7.68;4.68;;;;;;;;;;5033037;28;20393;-84
2021/01/20 07:46:13;;;;;;;6.32;4.75;;;;;;;;;;5031955;28;20408;-84
2021/01/20 07:48:39;;;;;;;6.03;4.35;;;;;;;;;;5046242;28;20401;-83
2021/01/20 07:51:05;;;;;;;7.40;4.90;;;;;;;;;;5031534;28;20408;-83
2021/01/20 07:53:31;;;;;;;7.50;4.82;;;;;;;;;;5032835;28;20385;-83
2021/01/20 07:55:57;;;;;;;5.80;4.20;;;;;;;;;;5033293;28;20361;-83
2021/01/20 07:58:27;;;;;;;6.28;4.50;;;;;;;;;;5031040;28;20381;-82
2021/01/20 08:00:53;;;;;;;7.53;5.20;;;;;;;;;;5032357;28;20380;-82
2021/01/20 08:03:35;;;;;;;8.10;4.85;;;;;;;;;;5032616;28;20760;-86
2021/01/20 08:06:01;;;;;;;6.03;4.70;;;;;;;;;;5032733;28;20902;-82
2021/01/20 08:08:27;;;;;;;6.38;4.72;;;;;;;;;;5031360;28;20374;-84
2021/01/20 08:10:58;;;;;;;7.97;4.20;;;;;;;;;;5032271;28;20855;-83
2021/01/20 08:13:26;;;;;;;7.00;4.73;;;;;;;;;;5031277;28;20385;-83
2021/01/20 08:15:52;;;;;;;4.97;4.28;;;;;;;;;;5023120;28;20377;-85
2021/01/20 08:18:18;;;;;;;5.88;4.15;;;;;;;;;;5029795;28;20385;-86
2021/01/20 08:20:45;;;;;;;5.05;4.38;;;;;;;;;;5031001;28;20420;-85
2021/01/20 08:23:40;;;;;;;6.97;4.30;;;;;;;;;;5030116;28;20413;-85
2021/01/20 08:26:07;;;;;;;6.30;4.57;;;;;;;;;;5001499;28;20449;-86
2021/01/20 08:28:34;;;;;;;5.40;4.18;;;;;;;;;;5031421;28;20380;-85
2021/01/20 08:31:19;;;;;;;5.55;4.25;;;;;;;;;;5031608;28;20886;-85
2021/01/20 08:33:45;;;;;;;5.20;3.97;;;;;;;;;;5011080;28;21066;-85
2021/01/20 08:36:12;;;;;;;8.23;4.27;;;;;;;;;;5012868;28;20466;-86
2021/01/20 08:38:38;;;;;;;5.67;4.37;;;;;;;;;;5030868;28;20385;-84
2021/01/20 08:41:15;;;;;;;5.45;3.80;;;;;;;;;;5030394;28;20408;-86
2021/01/20 08:43:42;;;;;;;7.13;4.63;;;;;;;;;;5030627;28;20401;-85
2021/01/20 08:46:26;;;;;;;6.15;4.13;;;;;;;;;;5031924;28;20378;-86
2021/01/20 08:48:56;;;;;;;5.72;3.90;;;;;;;;;;5031623;28;20778;-86
2021/01/20 08:51:22;;;;;;;5.65;4.05;;;;;;;;;;5030611;28;20755;-85
2021/01/20 08:53:48;;;;;;;5.93;4.22;;;;;;;;;;5031208;28;20373;-85
2021/01/20 08:56:23;;;;;;;6.95;4.05;;;;;;;;;;5031305;28;20744;-87
2021/01/20 08:58:53;;;;;;;5.95;3.72;;;;;;;;;;5027193;28;20910;-87
2021/01/20 09:01:22;;;;;;;5.97;3.88;;;;;;;;;;5030138;28;20400;-84
2021/01/20 09:03:55;;;;;;;6.10;3.83;;;;;;;;;;5031509;28;20400;-85
2021/01/20 09:06:21;;;;;;;5.70;3.95;;;;;;;;;;5031349;28;20457;-85
2021/01/20 09:08:47;;;;;;;5.63;4.50;;;;;;;;;;5035212;28;20790;-85
2021/01/20 09:11:13;;;;;;;6.95;4.38;;;;;;;;;;5031863;28;20909;-86
2021/01/20 09:13:39;;;;;;;7.23;4.47;;;;;;;;;;5026417;28;20471;-86
2021/01/20 09:16:07;;;;;;;6.20;4.78;;;;;;;;;;5012079;28;20462;-85
2021/01/20 09:18:33;;;;;;;7.43;4.93;;;;;;;;;;5031100;28;20376;-85
2021/01/20 09:21:00;;;;;;;6.40;4.47;;;;;;;;;;5032004;28;20413;-85
2021/01/20 09:23:26;;;;;;;5.63;4.18;;;;;;;;;;5012154;28;20406;-85
2021/01/20 09:25:54;;;;;;;4.68;4.00;;;;;;;;;;5017651;28;20373;-86
2021/01/20 09:28:20;;;;;;;7.55;4.22;;;;;;;;;;5016618;28;20380;-85
2021/01/20 09:30:46;;;;;;;6.10;4.38;;;;;;;;;;5024098;28;20413;-85
2021/01/20 09:33:12;;;;;;;5.50;4.00;;;;;;;;;;5026127;28;20445;-86
2021/01/20 09:35:39;;;;;;;5.45;4.30;;;;;;;;;;5030493;28;20457;-86
2021/01/20 09:38:05;;;;;;;5.32;3.90;;;;;;;;;;5031189;28;20383;-87
2021/01/20 09:40:32;;;;;;;8.43;4.57;;;;;;;;;;5030002;28;20461;-80
2021/01/20 09:42:58;;;;;;;6.85;3.78;;;;;;;;;;5031445;28;20393;-84
2021/01/20 09:45:29;;;;;;;4.93;3.67;;;;;;;;;;5029785;28;20381;-85
2021/01/20 09:47:55;;;;;;;5.60;4.03;;;;;;;;;;5036394;28;20381;-84
2021/01/20 09:50:21;;;;;;;5.15;3.85;;;;;;;;;;5029451;28;20385;-85
2021/01/20 09:52:47;;;;;;;4.05;3.60;;;;;;;;;;5029999;28;20401;-85
2021/01/20 09:55:16;;;;;;;6.63;4.00;;;;;;;;;;5029504;28;20406;-85
2021/01/20 09:57:43;;;;;;;7.38;4.30;;;;;;;;;;5029806;28;20740;-85
2021/01/20 10:00:11;;;;;;;5.78;3.80;;;;;;;;;;5029639;28;20465;-84
2021/01/20 10:02:38;;;;;;;7.07;4.00;;;;;;;;;;5029695;28;20405;-84
2021/01/20 10:05:04;;;;;;;5.45;3.88;;;;;;;;;;5032057;28;20408;-86
2021/01/20 10:07:30;;;;;;;7.72;3.95;;;;;;;;;;5032844;28;20373;-85
2021/01/20 10:09:57;;;;;;;5.53;3.75;;;;;;;;;;5035326;28;20358;-84
2021/01/20 10:12:23;;;;;;;4.70;3.55;;;;;;;;;;5036056;28;20361;-85
2021/01/20 10:14:49;;;;;;;4.75;3.42;;;;;;;;;;5034226;28;20384;-85
2021/01/20 10:17:15;;;;;;;4.45;3.20;;;;;;;;;;5035006;28;20416;-84
2021/01/20 10:19:41;;;;;;;5.10;3.50;;;;;;;;;;5034567;28;20373;-84
2021/01/20 10:22:07;;;;;;;4.60;3.50;;;;;;;;;;5036306;28;20508;-84
2021/01/20 10:24:33;;;;;;;5.70;3.43;;;;;;;;;;5038777;28;20369;-85
2021/01/20 10:26:59;;;;;;;4.43;3.22;;;;;;;;;;5039987;28;20392;-84
2021/01/20 10:29:26;;;;;;;3.72;3.10;;;;;;;;;;5036679;28;20377;-86
2021/01/20 10:31:52;;;;;;;3.85;3.10;;;;;;;;;;5034984;28;20859;-84
2021/01/20 10:34:18;;;;;;;3.75;3.10;;;;;;;;;;5034066;28;20378;-83
2021/01/20 10:36:44;;;;;;;3.78;2.90;;;;;;;;;;5033969;28;20419;-83
2021/01/20 10:39:10;;;;;;;7.77;3.93;;;;;;;;;;5034328;28;20412;-84
2021/01/20 10:41:37;;;;;;;4.28;3.13;;;;;;;;;;5033661;28;20369;-85
2021/01/20 10:44:03;;;;;;;4.10;3.30;;;;;;;;;;5033212;28;20859;-85
2021/01/20 10:46:30;;;;;;;4.32;3.50;;;;;;;;;;5033493;28;20467;-85
2021/01/20 10:48:57;;;;;;;4.25;3.17;;;;;;;;;;5033005;28;20839;-85
2021/01/20 10:51:23;;;;;;;5.07;3.20;;;;;;;;;;5033336;28;20401;-84
2021/01/20 10:53:50;;;;;;;3.60;3.13;;;;;;;;;;5027126;28;20455;-86
2021/01/20 10:56:16;;;;;;;4.32;2.95;;;;;;;;;;5026081;28;20357;-82
2021/01/20 10:58:42;;;;;;;4.38;3.08;;;;;;;;;;5034404;28;20698;-91
2021/01/20 11:01:09;;;;;;;5.00;3.13;;;;;;;;;;5032709;28;20372;-83
2021/01/20 11:03:44;;;;;;;4.38;3.10;;;;;;;;;;5040316;28;20401;-88
2021/01/20 11:06:15;;;;;;;4.65;3.17;;;;;;;;;;5037394;28;20377;-83
2021/01/20 11:08:41;;;;;;;3.67;2.78;;;;;;;;;;5036933;28;20391;-84
2021/01/20 11:11:17;;;;;;;4.50;2.83;;;;;;;;;;5036254;28;20393;-82
2021/01/20 11:13:48;;;;;;;3.92;3.00;;;;;;;;;;5035508;28;20373;-85
2021/01/20 11:16:14;;;;;;;4.90;3.60;;;;;;;;;;5035091;28;20487;-84
2021/01/20 11:18:40;;;;;;;3.90;2.97;;;;;;;;;;5032224;28;20453;-83
2021/01/20 11:21:06;;;;;;;3.50;2.97;;;;;;;;;;5032155;28;20377;-83
2021/01/20 11:23:35;;;;;;;4.43;3.08;;;;;;;;;;5031878;28;20539;-83
2021/01/20 11:26:01;;;;;;;4.05;3.10;;;;;;;;;;5031570;28;20400;-85
2021/01/20 11:28:28;;;;;;;5.47;3.33;;;;;;;;;;5031748;28;20369;-86
2021/01/20 11:30:55;;;;;;;4.03;3.00;;;;;;;;;;5032016;28;20500;-86
2021/01/20 11:33:25;;;;;;;3.57;2.93;;;;;;;;;;5033569;28;20540;-87
2021/01/20 11:35:52;;;;;;;3.30;2.63;;;;;;;;;;5032446;28;20372;-81
2021/01/20 11:38:18;;;;;;;3.40;2.80;;;;;;;;;;5032573;28;20528;-87
2021/01/20 11:40:44;;;;;;;5.63;3.03;;;;;;;;;;5032443;28;20764;-83
2021/01/20 11:43:10;;;;;;;4.00;2.83;;;;;;;;;;5032332;28;20484;-82
2021/01/20 11:45:38;;;;;;;3.33;2.70;;;;;;;;;;5034030;28;20479;-86
2021/01/20 11:48:05;;;;;;;3.10;2.80;;;;;;;;;;5038183;28;20370;-82
2021/01/20 11:50:31;;;;;;;4.75;3.05;;;;;;;;;;5015819;28;20366;-81
2021/01/20 11:52:57;;;;;;;5.82;2.92;;;;;;;;;;5012644;28;20379;-83
2021/01/20 11:55:24;;;;;;;4.07;2.95;;;;;;;;;;5023269;28;20455;-82
2021/01/20 11:57:50;;;;;;;4.40;2.60;;;;;;;;;;5032219;28;20921;-83
2021/01/20 12:00:17;;;;;;;3.75;2.45;;;;;;;;;;5034352;28;20378;-85
2021/01/20 12:02:43;;;;;;;3.17;2.55;;;;;;;;;;5033666;28;20433;-84
2021/01/20 12:05:16;;;;;;;3.47;2.70;;;;;;;;;;5033560;28;20382;-85
2021/01/20 12:07:46;;;;;;;4.82;3.00;;;;;;;;;;5033100;28;20373;-86
2021/01/20 12:10:31;;;;;;;3.35;2.80;;;;;;;;;;5034266;28;20868;-91
2021/01/20 12:13:00;;;;;;;4.10;2.80;;;;;;;;;;5033022;28;20374;-84
2021/01/20 12:15:39;;;;;;;3.67;2.63;;;;;;;;;;5001032;28;20385;-83
2021/01/20 12:18:16;;;;;;;4.07;2.40;;;;;;;;;;5032695;28;20827;-86
2021/01/20 12:20:43;;;;;;;3.38;2.63;;;;;;;;;;5031780;28;20469;-83
2021/01/20 12:23:09;;;;;;;5.13;2.35;;;;;;;;;;5029195;28;20948;-85
2021/01/20 12:25:47;;;;;;;3.28;2.40;;;;;;;;;;5004965;28;20481;-84
2021/01/20 12:28:14;;;;;;;2.63;2.30;;;;;;;;;;5032794;28;20470;-85
2021/01/20 12:30:40;;;;;;;3.00;2.40;;;;;;;;;;5014221;28;20381;-85
2021/01/20 12:33:09;;;;;;;3.95;2.35;;;;;;;;;;5032315;28;20464;-84
2021/01/20 12:35:35;;;;;;;4.00;2.55;;;;;;;;;;5032541;28;20370;-82
2021/01/20 12:38:03;;;;;;;2.92;2.30;;;;;;;;;;5033925;28;20431;-82
2021/01/20 12:40:32;;;;;;;4.13;2.28;;;;;;;;;;5033431;28;20346;-85
2021/01/20 12:43:04;;;;;;;2.80;2.33;;;;;;;;;;5031751;28;20394;-87
2021/01/20 12:45:31;;;;;;;3.13;2.40;;;;;;;;;;5030349;28;20388;-88
2021/01/20 12:48:11;;;;;;;3.47;2.30;;;;;;;;;;5007639;28;20361;-86
2021/01/20 12:50:37;;;;;;;4.53;2.53;;;;;;;;;;5032156;28;20373;-84
2021/01/20 12:53:20;;;;;;;3.42;2.40;;;;;;;;;;5031141;28;20887;-87
2021/01/20 12:55:49;;;;;;;3.70;2.80;;;;;;;;;;5028557;28;20390;-86
2021/01/20 12:58:36;;;;;;;4.65;2.40;;;;;;;;;;5017795;28;20388;-86
2021/01/20 13:01:22;;;;;;;2.78;2.40;;;;;;;;;;5027254;28;20379;-86
2021/01/20 13:03:51;;;;;;;3.67;2.45;;;;;;;;;;5031451;28;20401;-87
2021/01/20 13:06:17;;;;;;;3.13;2.75;;;;;;;;;;5030804;28;20385;-86
2021/01/20 13:08:43;;;;;;;4.20;2.50;;;;;;;;;;5031463;28;20713;-84
2021/01/20 13:11:12;;;;;;;3.10;2.70;;;;;;;;;;5031216;28;20431;-85
2021/01/20 13:13:40;;;;;;;3.53;2.40;;;;;;;;;;5031029;28;20377;-87
2021/01/20 13:16:08;;;;;;;3.00;2.50;;;;;;;;;;5031633;28;20550;-83
2021/01/20 13:18:34;;;;;;;3.47;2.27;;;;;;;;;;5031978;28;20420;-85
2021/01/20 13:21:00;;;;;;;3.47;2.40;;;;;;;;;;5031378;28;20844;-82
2021/01/20 13:23:26;;;;;;;3.60;2.45;;;;;;;;;;5032768;28;20401;-83
2021/01/20 13:25:53;;;;;;;5.10;2.33;;;;;;;;;;5032928;28;20484;-85
2021/01/20 13:28:19;;;;;;;4.90;2.53;;;;;;;;;;5033110;28;20404;-84
2021/01/20 13:30:45;;;;;;;3.92;2.20;;;;;;;;;;5030365;28;20717;-86
2021/01/20 13:33:11;;;;;;;3.00;2.10;;;;;;;;;;5029315;28;20411;-84
2021/01/20 13:35:37;;;;;;;4.10;2.40;;;;;;;;;;5032334;28;20378;-88
2021/01/20 13:38:03;;;;;;;3.15;2.17;;;;;;;;;;5031844;28;20377;-85
2021/01/20 13:40:29;;;;;;;4.45;2.40;;;;;;;;;;5031367;28;20914;-84
2021/01/20 13:42:55;;;;;;;3.88;2.40;;;;;;;;;;5030947;28;20451;-90
2021/01/20 13:45:22;;;;;;;13.93;2.60;;;;;;;;;;5029875;28;20378;-89
2021/01/20 13:47:49;;;;;;;4.07;2.50;;;;;;;;;;5028004;28;20424;-86
2021/01/20 13:50:15;;;;;;;2.83;2.10;;;;;;;;;;5029683;28;20974;-85
2021/01/20 13:52:41;;;;;;;2.53;1.90;;;;;;;;;;5029606;28;20461;-83
2021/01/20 13:55:07;;;;;;;2.80;2.08;;;;;;;;;;5031107;28;20444;-89
2021/01/20 13:57:33;;;;;;;2.63;1.97;;;;;;;;;;5031558;28;20366;-86
2021/01/20 13:59:59;;;;;;;4.13;2.10;;;;;;;;;;5031293;28;20376;-85
2021/01/20 14:02:28;;;;;;;5.40;2.20;;;;;;;;;;5031318;28;20441;-82
2021/01/20 14:04:54;;;;;;;3.28;2.30;;;;;;;;;;5029483;28;20431;-80
2021/01/20 14:07:20;;;;;;;3.50;2.22;;;;;;;;;;5016560;28;20442;-83
2021/01/20 14:09:46;;;;;;;3.78;2.42;;;;;;;;;;5012292;28;20433;-83
2021/01/20 14:12:12;;;;;;;2.83;2.40;;;;;;;;;;5030271;28;20702;-82
2021/01/20 14:14:39;;;;;;;2.90;2.20;;;;;;;;;;5031958;28;20370;-81
2021/01/20 14:17:06;;;;;;;4.18;2.50;;;;;;;;;;5029924;28;20389;-80
2021/01/20 14:19:32;;;;;;;2.92;2.10;;;;;;;;;;5032382;28;20377;-80
2021/01/20 14:21:59;;;;;;;3.00;2.63;;;;;;;;;;5031366;28;20887;-83
2021/01/20 14:24:25;;;;;;;3.00;2.53;;;;;;;;;;5032597;28;20863;-81
2021/01/20 14:26:55;;;;;;;3.20;2.60;;;;;;;;;;5035545;28;20443;-81
2021/01/20 14:29:22;;;;;;;4.18;2.53;;;;;;;;;;5029391;28;20368;-80
2021/01/20 14:31:48;;;;;;;4.65;2.90;;;;;;;;;;5027319;28;20797;-82
2021/01/20 14:34:14;;;;;;;4.10;3.10;;;;;;;;;;5030631;28;20420;-82
2021/01/20 14:36:40;;;;;;;4.32;3.28;;;;;;;;;;5030774;28;20393;-81
2021/01/20 14:39:06;;;;;;;4.93;3.00;;;;;;;;;;5028852;28;20744;-82
2021/01/20 14:41:32;;;;;;;4.93;3.10;;;;;;;;;;5030849;28;20358;-83
2021/01/20 14:44:00;;;;;;;3.90;2.85;;;;;;;;;;5028790;28;20798;-81